createdAt,value
2018-05-18T00:00:01.648Z,92.90
2018-05-18T00:02:29.228Z,93.00
2018-05-18T00:04:56.896Z,92.70
2018-05-18T00:07:24.545Z,92.70
2018-05-18T00:09:52.165Z,92.80
2018-05-18T00:12:19.783Z,93.00
2018-05-18T00:14:47.419Z,93.10
2018-05-18T00:17:15.019Z,93.10
2018-05-18T00:19:42.678Z,92.90
2018-05-18T00:22:10.401Z,93.00
2018-05-18T00:24:38.026Z,93.00
2018-05-18T00:27:05.649Z,93.00
2018-05-18T00:29:33.290Z,93.00
2018-05-18T00:32:00.913Z,93.10
2018-05-18T00:34:28.550Z,93.20
2018-05-18T00:36:56.169Z,93.10
2018-05-18T00:39:24.596Z,93.10
2018-05-18T00:41:52.251Z,93.00
2018-05-18T00:44:19.911Z,92.90
2018-05-18T00:46:47.569Z,93.00
2018-05-18T00:49:15.173Z,93.00
2018-05-18T00:51:42.770Z,93.00
2018-05-18T00:54:11.186Z,93.00
2018-05-18T00:56:38.777Z,93.00
2018-05-18T00:59:06.384Z,93.00
2018-05-18T01:01:34.017Z,93.00
2018-05-18T01:04:02.386Z,92.80
2018-05-18T01:06:30.061Z,92.70
2018-05-18T01:08:58.414Z,92.50
2018-05-18T01:11:26.038Z,92.50
2018-05-18T01:13:53.627Z,92.50
2018-05-18T01:16:27.277Z,92.60
2018-05-18T01:18:57.804Z,92.90
2018-05-18T01:21:30.122Z,92.90
2018-05-18T01:24:02.316Z,93.00
2018-05-18T01:26:32.966Z,93.00
2018-05-18T01:29:03.562Z,92.80
2018-05-18T01:31:33.236Z,92.80
2018-05-18T01:34:03.171Z,92.70
2018-05-18T01:36:32.998Z,92.70
2018-05-18T01:39:03.712Z,92.80
2018-05-18T01:41:34.437Z,92.80
2018-05-18T01:44:04.391Z,92.80
2018-05-18T01:46:33.902Z,92.30
2018-05-18T01:49:12.192Z,92.30
2018-05-18T01:51:42.125Z,92.40
2018-05-18T01:54:11.858Z,92.80
2018-05-18T01:56:41.776Z,93.00
2018-05-18T01:59:11.632Z,93.00
2018-05-18T02:01:41.758Z,92.90
2018-05-18T02:04:11.415Z,92.90
2018-05-18T02:06:46.119Z,92.90
2018-05-18T02:09:16.880Z,92.90
2018-05-18T02:11:48.877Z,92.80
2018-05-18T02:14:19.440Z,92.70
2018-05-18T02:16:49.343Z,92.70
2018-05-18T02:19:19.835Z,92.60
2018-05-18T02:21:50.485Z,92.50
2018-05-18T02:24:24.718Z,92.60
2018-05-18T02:26:54.559Z,92.60
2018-05-18T02:29:26.377Z,92.70
2018-05-18T02:31:57.714Z,92.80
2018-05-18T02:34:29.322Z,92.90
2018-05-18T02:36:59.076Z,92.90
2018-05-18T02:39:29.833Z,92.90
2018-05-18T02:41:59.550Z,92.90
2018-05-18T02:44:30.085Z,92.80
2018-05-18T02:46:59.866Z,92.80
2018-05-18T02:49:29.990Z,92.70
2018-05-18T02:52:03.710Z,92.70
2018-05-18T02:54:34.195Z,92.80
2018-05-18T02:57:04.162Z,92.80
2018-05-18T02:59:33.927Z,92.80
2018-05-18T03:02:03.859Z,92.70
2018-05-18T03:04:33.567Z,92.70
2018-05-18T03:07:03.734Z,92.40
2018-05-18T03:09:34.188Z,92.80
2018-05-18T03:12:04.829Z,92.70
2018-05-18T03:14:35.031Z,92.90
2018-05-18T03:17:07.148Z,92.90
2018-05-18T03:19:38.993Z,92.90
2018-05-18T03:22:08.866Z,93.00
2018-05-18T03:24:38.455Z,92.50
2018-05-18T03:27:08.372Z,92.70
2018-05-18T03:29:38.166Z,92.80
2018-05-18T03:32:08.736Z,92.80
2018-05-18T03:34:39.876Z,92.80
2018-05-18T03:37:10.680Z,92.60
2018-05-18T03:39:41.359Z,92.60
2018-05-18T03:42:11.941Z,92.60
2018-05-18T03:44:42.559Z,92.90
2018-05-18T03:47:12.667Z,92.90
2018-05-18T03:49:43.339Z,93.00
2018-05-18T03:52:13.821Z,93.00
2018-05-18T03:54:43.647Z,93.00
2018-05-18T03:57:13.252Z,92.90
2018-05-18T03:59:43.085Z,92.80
2018-05-18T04:02:24.228Z,92.90
2018-05-18T04:05:05.370Z,92.90
2018-05-18T04:07:47.723Z,92.80
2018-05-18T04:10:17.531Z,92.80
2018-05-18T04:12:47.370Z,93.10
2018-05-18T04:15:18.063Z,92.80
2018-05-18T04:17:47.827Z,92.80
2018-05-18T04:20:17.708Z,92.50
2018-05-18T04:22:48.040Z,92.40
2018-05-18T04:25:17.832Z,92.70
2018-05-18T04:27:47.434Z,92.90
2018-05-18T04:30:18.113Z,92.90
2018-05-18T04:32:47.800Z,92.90
2018-05-18T04:35:17.359Z,92.90
2018-05-18T04:37:49.124Z,92.90
2018-05-18T04:40:21.453Z,92.50
2018-05-18T04:42:51.990Z,92.50
2018-05-18T04:45:22.824Z,92.40
2018-05-18T04:47:52.620Z,92.40
2018-05-18T04:50:22.449Z,92.60
2018-05-18T04:52:51.749Z,92.80
2018-05-18T04:55:21.811Z,92.90
2018-05-18T04:57:50.909Z,92.80
2018-05-18T05:00:20.946Z,92.50
2018-05-18T05:02:51.753Z,92.50
2018-05-18T05:05:22.521Z,92.50
2018-05-18T05:07:52.389Z,92.80
2018-05-18T05:10:23.484Z,92.70
2018-05-18T05:12:53.265Z,93.30
2018-05-18T05:15:23.210Z,93.50
2018-05-18T05:17:52.970Z,93.60
2018-05-18T05:20:22.648Z,93.20
2018-05-18T05:22:52.186Z,93.10
2018-05-18T05:25:23.886Z,92.90
2018-05-18T05:27:53.667Z,93.10
2018-05-18T05:30:23.163Z,92.30
2018-05-18T05:32:52.601Z,92.40
2018-05-18T05:35:21.935Z,91.80
2018-05-18T05:37:51.289Z,92.00
2018-05-18T05:40:21.532Z,92.10
2018-05-18T05:42:51.128Z,92.10
2018-05-18T05:45:20.375Z,92.40
2018-05-18T05:47:50.011Z,92.40
2018-05-18T05:50:20.106Z,92.30
2018-05-18T05:52:50.868Z,92.30
2018-05-18T05:55:20.748Z,92.20
2018-05-18T05:57:51.294Z,92.30
2018-05-18T06:00:19.407Z,92.10
2018-05-18T06:02:57.460Z,91.20
2018-05-18T06:05:26.613Z,91.00
2018-05-18T06:07:57.247Z,91.20
2018-05-18T06:10:26.616Z,90.60
2018-05-18T06:12:55.354Z,90.60
2018-05-18T06:15:24.770Z,91.40
2018-05-18T06:17:55.345Z,91.40
2018-05-18T06:20:23.786Z,90.60
2018-05-18T06:22:52.986Z,90.60
2018-05-18T06:25:22.121Z,90.30
2018-05-18T06:27:51.035Z,90.40
2018-05-18T06:30:20.182Z,90.40
2018-05-18T06:32:49.449Z,89.90
2018-05-18T06:35:18.102Z,88.90
2018-05-18T06:37:47.091Z,89.10
2018-05-18T06:40:17.051Z,89.50
2018-05-18T06:42:47.213Z,90.30
2018-05-18T06:45:16.783Z,90.30
2018-05-18T06:47:47.021Z,89.10
2018-05-18T06:50:29.215Z,89.10
2018-05-18T06:53:01.620Z,88.90
2018-05-18T06:55:30.849Z,87.60
2018-05-18T06:58:00.465Z,89.00
2018-05-18T07:00:28.689Z,86.60
2018-05-18T07:02:57.107Z,87.80
2018-05-18T07:05:26.469Z,88.90
2018-05-18T07:07:56.006Z,89.10
2018-05-18T07:10:24.643Z,86.70
2018-05-18T07:12:53.620Z,86.90
2018-05-18T07:15:21.669Z,86.70
2018-05-18T07:17:52.013Z,87.80
2018-05-18T07:20:21.624Z,87.20
2018-05-18T07:22:51.451Z,82.90
2018-05-18T07:25:20.686Z,82.40
2018-05-18T07:27:49.905Z,82.30
2018-05-18T07:30:19.572Z,82.80
2018-05-18T07:32:48.405Z,84.30
2018-05-18T07:35:16.546Z,84.70
2018-05-18T07:37:46.081Z,82.40
2018-05-18T07:40:15.403Z,82.70
2018-05-18T07:42:45.522Z,85.00
2018-05-18T07:45:14.205Z,83.00
2018-05-18T07:47:43.592Z,82.30
2018-05-18T07:50:11.924Z,82.30
2018-05-18T07:52:42.019Z,81.20
2018-05-18T07:55:11.574Z,79.00
2018-05-18T07:57:40.300Z,81.40
2018-05-18T08:00:09.472Z,78.70
2018-05-18T08:02:38.719Z,78.00
2018-05-18T08:05:07.937Z,75.50
2018-05-18T08:07:42.548Z,79.30
2018-05-18T08:10:11.389Z,79.30
2018-05-18T08:12:41.308Z,77.40
2018-05-18T08:15:10.655Z,74.70
2018-05-18T08:17:40.523Z,75.40
2018-05-18T08:20:09.402Z,75.80
2018-05-18T08:22:38.455Z,76.80
2018-05-18T08:25:08.391Z,76.70
2018-05-18T08:27:37.794Z,76.50
2018-05-18T08:30:06.860Z,76.20
2018-05-18T08:32:37.834Z,75.60
2018-05-18T08:35:06.787Z,75.70
2018-05-18T08:37:35.505Z,77.70
2018-05-18T08:40:05.115Z,75.20
2018-05-18T08:42:35.262Z,76.00
2018-05-18T08:45:04.466Z,75.90
2018-05-18T08:47:32.850Z,74.30
2018-05-18T08:50:01.671Z,74.10
2018-05-18T08:52:30.277Z,72.80
2018-05-18T08:55:00.549Z,68.60
2018-05-18T08:57:29.184Z,69.60
2018-05-18T08:59:58.475Z,69.60
2018-05-18T09:02:29.185Z,66.50
2018-05-18T09:05:01.928Z,66.40
2018-05-18T09:07:31.349Z,70.20
2018-05-18T09:10:00.469Z,69.70
2018-05-18T09:12:29.121Z,69.10
2018-05-18T09:14:57.493Z,69.30
2018-05-18T09:17:27.446Z,65.90
2018-05-18T09:19:56.815Z,65.90
2018-05-18T09:22:25.142Z,68.00
2018-05-18T09:24:55.415Z,67.40
2018-05-18T09:27:25.643Z,66.20
2018-05-18T09:29:56.286Z,64.30
2018-05-18T09:32:24.843Z,64.30
2018-05-18T09:34:53.671Z,63.50
2018-05-18T09:37:22.180Z,63.10
2018-05-18T09:40:01.740Z,63.30
2018-05-18T09:42:31.969Z,63.50
2018-05-18T09:45:02.569Z,61.60
2018-05-18T09:47:34.522Z,62.30
2018-05-18T09:50:04.721Z,65.60
2018-05-18T09:52:33.723Z,65.60
2018-05-18T09:55:10.200Z,67.90
2018-05-18T09:57:39.522Z,60.10
2018-05-18T10:02:59.510Z,60.70
2018-05-18T10:05:28.929Z,56.90
2018-05-18T10:07:57.442Z,60.60
2018-05-18T10:10:26.211Z,59.40
2018-05-18T10:12:55.160Z,59.70
2018-05-18T10:15:23.617Z,60.80
2018-05-18T10:17:52.687Z,61.00
2018-05-18T10:20:20.943Z,61.00
2018-05-18T10:22:50.293Z,58.10
2018-05-18T10:25:26.241Z,61.30
2018-05-18T10:27:54.342Z,61.20
2018-05-18T10:30:31.946Z,60.90
2018-05-18T10:33:01.992Z,58.80
2018-05-18T10:35:31.634Z,62.20
2018-05-18T10:38:00.882Z,54.20
2018-05-18T10:40:30.979Z,53.60
2018-05-18T10:43:02.414Z,55.10
2018-05-18T10:45:34.190Z,55.00
2018-05-18T10:48:03.856Z,57.60
2018-05-18T10:50:34.017Z,58.20
2018-05-18T10:53:04.478Z,63.10
2018-05-18T10:55:33.939Z,63.10
2018-05-18T10:58:04.162Z,59.90
2018-05-18T11:00:42.533Z,59.00
2018-05-18T11:03:15.778Z,56.70
2018-05-18T11:05:48.645Z,59.50
2018-05-18T11:08:18.765Z,61.30
2018-05-18T11:10:47.067Z,59.70
2018-05-18T11:13:19.755Z,55.70
2018-05-18T11:15:52.183Z,58.20
2018-05-18T11:18:25.400Z,55.70
2018-05-18T11:20:56.835Z,54.90
2018-05-18T11:23:30.259Z,54.70
2018-05-18T11:26:02.874Z,56.50
2018-05-18T11:28:35.243Z,57.80
2018-05-18T11:31:04.824Z,57.10
2018-05-18T11:33:34.023Z,59.30
2018-05-18T11:36:06.199Z,55.20
2018-05-18T11:38:41.074Z,52.30
2018-05-18T11:41:10.252Z,51.90
2018-05-18T11:43:39.006Z,50.50
2018-05-18T11:46:08.787Z,52.80
2018-05-18T11:48:39.494Z,52.00
2018-05-18T11:51:10.572Z,52.00
2018-05-18T11:53:44.833Z,55.50
2018-05-18T11:56:15.512Z,53.00
2018-05-18T11:58:49.411Z,52.20
2018-05-18T12:01:21.762Z,50.20
2018-05-18T12:03:55.923Z,47.70
2018-05-18T12:06:24.519Z,48.40
2018-05-18T12:08:53.517Z,50.70
2018-05-18T12:11:22.603Z,53.00
2018-05-18T12:13:50.800Z,55.00
2018-05-18T12:18:56.152Z,52.70
2018-05-18T12:21:25.279Z,54.10
2018-05-18T12:23:55.083Z,54.10
2018-05-18T12:26:24.104Z,54.00
2018-05-18T12:28:53.253Z,55.10
2018-05-18T12:31:22.625Z,55.10
2018-05-18T12:33:51.878Z,55.60
2018-05-18T12:36:23.348Z,53.00
2018-05-18T12:38:52.400Z,53.00
2018-05-18T12:41:21.408Z,54.70
2018-05-18T12:44:16.688Z,54.70
2018-05-18T12:46:46.846Z,51.20
2018-05-18T12:49:16.587Z,55.70
2018-05-18T12:51:46.813Z,54.40
2018-05-18T12:54:15.432Z,51.50
2018-05-18T12:56:45.441Z,50.40
2018-05-18T12:59:14.115Z,50.10
2018-05-18T13:01:46.112Z,49.30
2018-05-18T13:04:15.476Z,55.60
2018-05-18T13:06:45.925Z,51.00
2018-05-18T13:09:15.240Z,50.90
2018-05-18T13:11:45.813Z,54.50
2018-05-18T13:14:14.683Z,47.10
2018-05-18T13:16:44.652Z,48.80
2018-05-18T13:19:15.287Z,51.50
2018-05-18T13:21:45.495Z,54.10
2018-05-18T13:24:14.619Z,54.80
2018-05-18T13:26:47.224Z,52.60
2018-05-18T13:29:16.659Z,56.60
2018-05-18T13:31:46.922Z,50.80
2018-05-18T13:34:16.373Z,49.60
2018-05-18T13:36:50.513Z,50.20
2018-05-18T13:39:19.791Z,50.90
2018-05-18T13:41:48.401Z,51.70
2018-05-18T13:44:19.666Z,52.40
2018-05-18T13:46:49.438Z,51.00
2018-05-18T13:49:19.011Z,54.50
2018-05-18T13:51:47.466Z,54.40
2018-05-18T13:54:16.676Z,56.00
2018-05-18T13:56:46.013Z,54.90
2018-05-18T13:59:14.982Z,54.80
2018-05-18T14:01:44.962Z,52.30
2018-05-18T14:04:15.407Z,52.30
2018-05-18T14:06:43.437Z,52.20
2018-05-18T14:09:11.384Z,51.80
2018-05-18T14:11:40.058Z,51.00
2018-05-18T14:14:08.202Z,52.10
2018-05-18T14:16:36.992Z,53.00
2018-05-18T14:19:05.572Z,53.90
2018-05-18T14:21:34.452Z,50.40
2018-05-18T14:24:04.244Z,52.50
2018-05-18T14:26:33.267Z,50.70
2018-05-18T14:29:02.311Z,51.60
2018-05-18T14:31:32.615Z,50.30
2018-05-18T14:34:01.144Z,52.10
2018-05-18T14:36:30.099Z,52.00
2018-05-18T14:38:59.278Z,52.90
2018-05-18T14:41:29.807Z,52.00
2018-05-18T14:43:59.934Z,50.90
2018-05-18T14:46:30.021Z,52.80
2018-05-18T14:48:59.275Z,52.80
2018-05-18T14:51:28.220Z,54.20
2018-05-18T14:53:56.861Z,53.20
2018-05-18T14:56:27.219Z,54.30
2018-05-18T14:58:57.570Z,51.40
2018-05-18T15:01:26.852Z,53.40
2018-05-18T15:03:56.093Z,53.20
2018-05-18T15:06:25.574Z,53.40
2018-05-18T15:08:56.926Z,51.70
2018-05-18T15:11:35.432Z,49.30
2018-05-18T15:14:05.511Z,49.40
2018-05-18T15:16:36.700Z,51.50
2018-05-18T15:19:06.129Z,50.80
2018-05-18T15:21:35.567Z,50.80
2018-05-18T15:24:06.835Z,52.90
2018-05-18T15:26:36.570Z,50.40
2018-05-18T15:29:05.601Z,51.20
2018-05-18T15:31:35.691Z,50.50
2018-05-18T15:34:05.023Z,53.00
2018-05-18T15:36:34.152Z,50.40
2018-05-18T15:39:02.608Z,51.50
2018-05-18T15:41:31.878Z,54.70
2018-05-18T15:44:02.160Z,55.20
2018-05-18T15:46:32.556Z,52.20
2018-05-18T15:49:03.183Z,52.80
2018-05-18T15:51:41.657Z,50.20
2018-05-18T15:54:12.294Z,49.30
2018-05-18T15:56:43.808Z,49.70
2018-05-18T15:59:15.034Z,51.20
2018-05-18T16:01:44.815Z,53.20
2018-05-18T16:04:13.615Z,53.50
2018-05-18T16:06:42.043Z,55.30
2018-05-18T16:09:12.274Z,54.90
2018-05-18T16:11:41.336Z,54.30
2018-05-18T16:14:16.303Z,53.80
2018-05-18T16:16:46.408Z,53.80
2018-05-18T16:19:15.235Z,55.10
2018-05-18T16:21:44.752Z,54.00
2018-05-18T16:24:13.739Z,54.90
2018-05-18T16:26:42.466Z,54.90
2018-05-18T16:29:13.203Z,55.00
2018-05-18T16:31:42.671Z,54.70
2018-05-18T16:34:16.479Z,55.50
2018-05-18T16:36:44.884Z,54.50
2018-05-18T16:39:12.766Z,54.50
2018-05-18T16:41:40.687Z,56.10
2018-05-18T16:44:14.236Z,56.60
2018-05-18T16:46:42.845Z,56.30
2018-05-18T16:49:10.993Z,57.10
2018-05-18T16:51:40.127Z,57.50
2018-05-18T16:54:10.123Z,57.30
2018-05-18T16:56:39.602Z,57.70
2018-05-18T16:59:08.319Z,58.50
2018-05-18T17:01:36.234Z,57.40
2018-05-18T17:04:05.321Z,57.70
2018-05-18T17:06:34.851Z,57.50
2018-05-18T17:09:04.215Z,57.30
2018-05-18T17:11:33.543Z,58.70
2018-05-18T17:14:04.909Z,59.80
2018-05-18T17:16:35.268Z,59.80
2018-05-18T17:19:04.000Z,58.60
2018-05-18T17:21:34.248Z,58.50
2018-05-18T17:24:04.163Z,58.30
2018-05-18T17:26:35.841Z,58.20
2018-05-18T17:29:06.486Z,58.40
2018-05-18T17:31:35.849Z,58.60
2018-05-18T17:34:07.265Z,58.50
2018-05-18T17:36:38.008Z,58.30
2018-05-18T17:39:14.782Z,58.00
2018-05-18T17:41:45.284Z,58.80
2018-05-18T17:44:14.066Z,58.50
2018-05-18T17:46:43.719Z,59.00
2018-05-18T17:49:14.170Z,58.30
2018-05-18T17:51:44.367Z,58.30
2018-05-18T17:54:17.660Z,58.30
2018-05-18T17:56:49.047Z,59.10
2018-05-18T17:59:26.369Z,59.90
2018-05-18T18:01:57.489Z,59.80
2018-05-18T18:04:27.079Z,60.10
2018-05-18T18:06:56.252Z,61.10
2018-05-18T18:09:25.837Z,61.00
2018-05-18T18:11:54.015Z,60.80
2018-05-18T18:14:23.371Z,60.70
2018-05-18T18:16:52.712Z,60.60
2018-05-18T18:19:22.355Z,61.00
2018-05-18T18:21:52.002Z,61.20
2018-05-18T18:24:21.333Z,61.20
2018-05-18T18:26:49.931Z,61.40
2018-05-18T18:29:18.659Z,61.30
2018-05-18T18:31:48.017Z,61.10
2018-05-18T18:34:16.876Z,61.40
2018-05-18T18:36:49.768Z,61.60
2018-05-18T18:39:22.593Z,62.20
2018-05-18T18:41:53.459Z,62.10
2018-05-18T18:44:21.669Z,62.10
2018-05-18T18:46:51.652Z,63.30
2018-05-18T18:49:21.030Z,62.30
2018-05-18T18:51:50.079Z,62.70
2018-05-18T18:54:18.918Z,62.70
2018-05-18T18:56:49.441Z,63.30
2018-05-18T18:59:22.439Z,63.40
2018-05-18T19:01:52.281Z,63.20
2018-05-18T19:04:27.010Z,63.70
2018-05-18T19:06:56.551Z,63.80
2018-05-18T19:09:26.246Z,64.90
2018-05-18T19:11:55.655Z,65.00
2018-05-18T19:14:25.643Z,65.50
2018-05-18T19:16:55.184Z,66.00
2018-05-18T19:19:24.947Z,66.50
2018-05-18T19:21:54.388Z,66.10
2018-05-18T19:24:23.234Z,67.30
2018-05-18T19:26:53.397Z,67.00
2018-05-18T19:29:24.445Z,67.20
2018-05-18T19:31:53.010Z,67.60
2018-05-18T19:34:21.342Z,67.90
2018-05-18T19:36:50.277Z,68.20
2018-05-18T19:39:20.688Z,68.30
2018-05-18T19:41:51.976Z,69.10
2018-05-18T19:44:22.008Z,69.10
2018-05-18T19:46:51.861Z,69.90
2018-05-18T19:49:21.511Z,69.50
2018-05-18T19:51:50.673Z,70.00
2018-05-18T19:54:20.206Z,70.80
2018-05-18T19:56:48.436Z,70.80
2018-05-18T19:59:17.819Z,70.60
2018-05-18T20:01:49.036Z,70.90
2018-05-18T20:04:18.370Z,70.90
2018-05-18T20:06:47.589Z,71.20
2018-05-18T20:09:17.157Z,71.20
2018-05-18T20:11:46.765Z,72.00
2018-05-18T20:14:15.701Z,72.00
2018-05-18T20:16:45.014Z,72.50
2018-05-18T20:19:15.389Z,72.60
2018-05-18T20:21:45.109Z,72.30
2018-05-18T20:24:15.009Z,72.40
2018-05-18T20:26:43.275Z,72.80
2018-05-18T20:29:12.779Z,73.10
2018-05-18T20:31:43.138Z,73.70
2018-05-18T20:34:13.538Z,73.60
2018-05-18T20:36:42.885Z,73.70
2018-05-18T20:39:17.686Z,73.60
2018-05-18T20:41:47.698Z,73.90
2018-05-18T20:44:17.352Z,74.40
2018-05-18T20:46:46.898Z,75.10
2018-05-18T20:49:16.596Z,75.50
2018-05-18T20:51:45.916Z,75.40
2018-05-18T20:54:15.716Z,75.80
2018-05-18T20:56:45.878Z,77.10
2018-05-18T20:59:15.243Z,77.10
2018-05-18T21:01:45.684Z,76.80
2018-05-18T21:04:15.220Z,76.80
2018-05-18T21:06:44.682Z,77.30
2018-05-18T21:09:15.442Z,77.50
2018-05-18T21:11:44.830Z,77.10
2018-05-18T21:14:15.204Z,77.80
2018-05-18T21:16:44.261Z,77.80
2018-05-18T21:19:13.759Z,78.50
2018-05-18T21:21:42.771Z,78.70
2018-05-18T21:24:12.331Z,78.90
2018-05-18T21:26:41.170Z,78.90
2018-05-18T21:29:18.649Z,79.50
2018-05-18T21:31:47.474Z,79.80
2018-05-18T21:34:16.873Z,80.00
2018-05-18T21:36:46.358Z,79.80
2018-05-18T21:39:15.760Z,79.80
2018-05-18T21:41:43.792Z,79.30
2018-05-18T21:44:13.508Z,79.30
2018-05-18T21:46:42.918Z,79.60
2018-05-18T21:49:12.487Z,79.70
2018-05-18T21:51:42.166Z,80.00
2018-05-18T21:54:11.987Z,80.70
2018-05-18T21:56:41.389Z,79.80
2018-05-18T21:59:11.906Z,80.90
2018-05-18T22:01:42.507Z,81.00
2018-05-18T22:04:13.211Z,81.00
2018-05-18T22:06:42.925Z,81.10
2018-05-18T22:09:12.484Z,81.00
2018-05-18T22:11:45.420Z,81.20
2018-05-18T22:14:17.118Z,81.50
2018-05-18T22:16:47.915Z,81.50
2018-05-18T22:19:17.350Z,81.50
2018-05-18T22:21:48.018Z,81.80
2018-05-18T22:24:27.124Z,81.80
2018-05-18T22:26:59.887Z,82.40
2018-05-18T22:29:30.310Z,82.30
2018-05-18T22:32:00.032Z,82.80
2018-05-18T22:34:29.547Z,82.80
2018-05-18T22:36:59.972Z,83.00
2018-05-18T22:39:30.280Z,83.60
2018-05-18T22:41:59.995Z,83.60
2018-05-18T22:44:29.419Z,83.70
2018-05-18T22:47:00.259Z,82.50
2018-05-18T22:49:29.207Z,82.50
2018-05-18T22:51:58.766Z,82.80
2018-05-18T22:54:27.166Z,82.70
2018-05-18T22:56:54.820Z,82.70
2018-05-18T22:59:24.975Z,82.70
2018-05-18T23:01:52.661Z,82.80
2018-05-18T23:04:22.975Z,83.20
2018-05-18T23:06:50.634Z,83.50
2018-05-18T23:09:18.301Z,83.60
2018-05-18T23:11:45.929Z,82.60
2018-05-18T23:14:13.538Z,83.00
2018-05-18T23:16:41.234Z,83.50
2018-05-18T23:19:08.902Z,84.30
2018-05-18T23:21:36.634Z,83.70
2018-05-18T23:24:04.256Z,84.00
2018-05-18T23:26:31.933Z,84.00
2018-05-18T23:28:59.561Z,83.60
2018-05-18T23:31:27.262Z,84.40
2018-05-18T23:33:54.990Z,84.50
2018-05-18T23:36:22.635Z,83.80
2018-05-18T23:38:51.059Z,84.30
2018-05-18T23:41:18.710Z,84.30
2018-05-18T23:43:46.299Z,84.20
2018-05-18T23:46:13.918Z,84.40
2018-05-18T23:48:41.569Z,84.10
2018-05-18T23:51:09.179Z,84.70
2018-05-18T23:53:36.917Z,84.10
2018-05-18T23:56:09.338Z,84.00
2018-05-18T23:58:37.020Z,83.90
